Kamloops Airport
CYKA : now visible

Airfield :











YOU CAN JOIN US ON...

 
LOGIN :

Register | Disclaimer

   EN    FR    IT 

 









Legend :    VFR   Marginal VFR   IFR   Intensive IFR   Very Intensive IFR
Visi :
Ceiling :
>= 8 km
>= 3000ft
5 to 8 km
1000 to 3000 ft
1500m to 5 km
500 to 1000 ft
800 to 1500m
200 to 500 ft
< 800m
< 200 ft
Symbols :   Thunderstorms  Fog  Heavy snow  Heavy precipitations  Wind > 20 kt







- Airport Elevation : 1133 ft
- IATA code : YKA


CYKA - Kamloops

CURRENT METAR :
  • 200900Z 30004KT 40SM -SHRA BKN063 12/11 A2995 RMK SC7 CVCTV CLD EMBD SLP148

EXPIRED METARs :
  • 200834Z 00000KT 25SM -SHRA BKN047 OVC180 12/11 A2995 RMK SC6AC2 CVCTV CLD EMBDD SLP148
  • 200800Z 08004KT 40SM FEW080 SCT190 12/11 A2994 RMK AC2AC2 SLP146
  • 200700Z 12004KT 25SM SCT060 OVC160 14/11 A2994 RMK SC3AC5 SLP143 DENSITY ALT 1300FT
  • 200655Z 11005KT 25SM SCT060 BKN180 14/11 A2994 RMK SC3AC4 SLP145 DENSITY ALT 1300FT

TAF TAF CYKA
Valid from the 20 at 07:00 until the 20 at 19:00 UTC


200638Z 2007/2019 11005KT P6SM BKN060
TEMPO 2007/2009 P6SM -SHRA
FM200900 27006KT P6SM SCT060 RMK NXT FCST BY 201300Z
No reported NOTAMs for that airfield.



MET'MAP, your aeronautical weather chart ! - Copyright ORBIFLY December 2007 - Disclaimer

ORBIFLY MET'MAP TEAM :

Programming & Development : Alexandra Zaïnal
Concept & Development : Baudouin d'Aumeries
Co-Development & Prog : Marc-Olivier Méhu
Technical & hardware support : Manuel Goepfert

Contact : metmap@orbifly.com




SOURCES & CREDITS :

   NOAA       Earth
Advisory